Thornton, Washington
Current Conditions -  °F | °C
As of 12:53 AM on Thursday 23 Oct 2014 (Local Time) from KPUW Reporting Station
Light Rain Light Rain  
Wind Chill: 53°   Ceiling: 6500
Heat Index: 53°   Visibility: 10mi
Dew Point: 44°   Wind: 16mph
Humidity: 71%   Direction: 140°SE
Pressure: 29.83"   Gusts: NA
Location:  47.12°N, 117.39°W
Report Text: KPUW 230753Z AUTO 14014KT 10SM -RA BKN065 OVC095 12/07 A2983 RMK AO2 RAB46 SLP098 P0000 T01170067 401670056
Loading
Personal Weather Stations






























Interactive Weather Map
Tropical Storm Tracking
New forecast layout! Learn more

10-Day Weather Forecast

Advertisements
Track Severe Weather on mobile